Time;durP1;ratioP1;P1;durP2;ratioP2;P2;SDS_P1;SDS_P2;PMS_P1;PMS_P2;Temp;Humidity;BMP_temperature;BMP_pressure;BME280_temperature;BME280_humidity;BME280_pressure;Samples;Min_cycle;Max_cycle;Signal;HPM_P1;HPM_P2
2023/06/16 00:02:21;;;;;;;5.43;3.40;;;15.90;98.00;;;;;;5054067;28;20458;-67
2023/06/16 00:04:50;;;;;;;6.40;3.70;;;16.00;98.00;;;;;;5053770;28;20947;-67
2023/06/16 00:07:19;;;;;;;6.57;4.23;;;16.00;98.00;;;;;;5035728;28;20454;-67
2023/06/16 00:09:48;;;;;;;9.20;4.30;;;16.00;98.00;;;;;;5053117;28;20445;-67
2023/06/16 00:12:15;;;;;;;7.30;3.73;;;15.90;98.00;;;;;;5053653;28;20809;-67
2023/06/16 00:14:42;;;;;;;7.20;3.80;;;15.80;98.00;;;;;;5052790;28;20485;-67
2023/06/16 00:17:10;;;;;;;7.07;4.10;;;15.70;98.00;;;;;;5053315;28;20454;-67
2023/06/16 00:19:39;;;;;;;6.00;3.73;;;15.60;98.00;;;;;;5035337;28;20485;-67
2023/06/16 00:22:07;;;;;;;7.30;3.70;;;15.60;98.00;;;;;;5053319;28;20475;-67
2023/06/16 00:24:34;;;;;;;9.23;3.83;;;15.80;98.00;;;;;;5053114;28;20456;-67
2023/06/16 00:27:06;;;;;;;8.03;4.30;;;15.90;98.00;;;;;;5053027;28;20449;-67
2023/06/16 00:29:33;;;;;;;7.20;4.10;;;15.90;98.00;;;;;;5035470;28;20851;-67
2023/06/16 00:32:00;;;;;;;8.23;4.27;;;15.90;98.00;;;;;;5053150;28;20461;-67
2023/06/16 00:34:27;;;;;;;7.07;3.73;;;15.60;98.00;;;;;;5049568;28;20493;-67
2023/06/16 00:36:55;;;;;;;7.00;3.67;;;15.50;98.00;;;;;;5032882;28;20961;-67
2023/06/16 00:39:22;;;;;;;6.97;4.07;;;15.60;98.00;;;;;;5032861;28;20463;-67
2023/06/16 00:41:49;;;;;;;6.40;3.70;;;15.80;98.00;;;;;;5032977;28;20524;-67
2023/06/16 00:44:20;;;;;;;8.10;4.50;;;15.70;98.00;;;;;;5032838;28;20998;-67
2023/06/16 00:46:48;;;;;;;7.07;4.00;;;15.40;98.00;;;;;;5032906;28;20509;-66
2023/06/16 00:49:15;;;;;;;7.60;4.20;;;15.10;98.00;;;;;;5015350;28;20931;-67
2023/06/16 00:51:44;;;;;;;6.67;3.77;;;15.10;98.00;;;;;;5032988;28;20454;-67
2023/06/16 00:54:13;;;;;;;7.70;3.90;;;15.10;98.00;;;;;;5032766;28;20568;-67
2023/06/16 00:56:41;;;;;;;6.90;4.00;;;15.10;98.00;;;;;;5015587;28;21018;-67
2023/06/16 00:59:08;;;;;;;6.60;3.83;;;15.10;98.00;;;;;;5032645;28;20994;-67
2023/06/16 01:01:38;;;;;;;8.43;4.23;;;15.10;98.00;;;;;;5032731;28;20457;-67
2023/06/16 01:04:05;;;;;;;7.27;4.20;;;15.00;98.00;;;;;;5032029;28;20983;-67
2023/06/16 01:06:57;;;;;;;5.83;3.87;;;14.80;98.00;;;;;;5032619;28;20513;-67
2023/06/16 01:09:30;;;;;;;7.53;3.83;;;14.80;98.00;;;;;;5032298;28;20450;-67
2023/06/16 01:12:11;;;;;;;6.93;4.07;;;14.90;98.00;;;;;;5032394;28;20520;-67
2023/06/16 01:14:49;;;;;;;7.03;3.60;;;15.00;98.00;;;;;;5032191;28;20486;-67
2023/06/16 01:17:21;;;;;;;7.70;3.80;;;15.10;98.00;;;;;;5032375;28;21037;-67
2023/06/16 01:20:07;;;;;;;5.50;3.60;;;15.00;98.00;;;;;;5032215;28;20466;-67
2023/06/16 01:22:52;;;;;;;8.40;4.20;;;14.80;98.00;;;;;;5032238;28;20778;-67
2023/06/16 01:25:23;;;;;;;6.50;4.00;;;14.60;98.00;;;;;;5032271;28;20474;-67
2023/06/16 01:27:52;;;;;;;7.10;3.80;;;14.40;98.00;;;;;;5014159;28;20473;-67
2023/06/16 01:30:23;;;;;;;9.07;4.10;;;14.40;98.00;;;;;;5032261;28;20458;-67
2023/06/16 01:32:53;;;;;;;7.83;4.27;;;14.60;98.00;;;;;;5014310;28;20459;-67
2023/06/16 01:35:23;;;;;;;7.93;4.10;;;14.80;98.00;;;;;;5032370;28;20483;-67
2023/06/16 01:37:52;;;;;;;7.07;3.70;;;14.80;98.00;;;;;;5030677;28;20533;-67
2023/06/16 01:40:21;;;;;;;6.57;4.00;;;14.70;98.00;;;;;;5032135;28;20451;-67
2023/06/16 01:42:48;;;;;;;8.10;3.90;;;14.50;98.00;;;;;;5032076;28;20528;-67
2023/06/16 01:45:17;;;;;;;6.27;3.53;;;14.50;98.00;;;;;;5032119;28;20840;-67
2023/06/16 01:47:45;;;;;;;11.40;4.13;;;14.40;98.00;;;;;;5032157;28;20509;-67
2023/06/16 01:50:12;;;;;;;6.30;3.67;;;14.30;98.00;;;;;;5032181;28;20486;-67
2023/06/16 01:52:40;;;;;;;8.70;4.20;;;14.40;98.00;;;;;;5032007;28;20474;-67
2023/06/16 01:55:08;;;;;;;7.00;3.90;;;14.50;98.00;;;;;;5031911;28;20559;-67
2023/06/16 01:57:37;;;;;;;6.10;3.50;;;14.50;98.00;;;;;;5031466;28;20999;-67
2023/06/16 02:00:10;;;;;;;8.20;3.93;;;14.70;98.00;;;;;;5014061;28;20466;-66
2023/06/16 02:02:42;;;;;;;7.30;4.13;;;14.60;98.00;;;;;;5014289;28;20454;-67
2023/06/16 02:05:11;;;;;;;5.40;3.70;;;14.80;98.00;;;;;;5031703;28;20480;-67
2023/06/16 02:07:43;;;;;;;6.97;4.40;;;14.70;98.00;;;;;;5031426;28;20521;-67
2023/06/16 02:10:12;;;;;;;7.93;4.20;;;14.50;98.00;;;;;;5031740;28;20455;-67
2023/06/16 02:12:41;;;;;;;12.83;4.73;;;14.30;98.00;;;;;;5031556;28;20937;-67
2023/06/16 02:15:09;;;;;;;6.53;3.87;;;14.10;98.00;;;;;;5031665;28;20486;-67
2023/06/16 02:17:36;;;;;;;6.50;3.87;;;14.30;98.00;;;;;;5014048;28;20555;-67
2023/06/16 02:20:08;;;;;;;6.70;3.63;;;14.20;98.00;;;;;;5031399;28;20454;-67
2023/06/16 02:22:36;;;;;;;7.27;4.20;;;14.30;98.00;;;;;;5031573;28;20466;-67
2023/06/16 02:25:03;;;;;;;5.67;3.80;;;14.10;98.00;;;;;;5031789;28;20870;-66
2023/06/16 02:27:30;;;;;;;7.30;3.93;;;14.10;98.00;;;;;;5014322;28;20498;-67
2023/06/16 02:29:59;;;;;;;7.93;4.10;;;14.00;98.00;;;;;;5013853;28;20469;-67
2023/06/16 02:32:26;;;;;;;6.80;4.10;;;14.10;98.00;;;;;;5031590;28;20878;-67
2023/06/16 02:34:55;;;;;;;7.03;4.00;;;14.20;98.00;;;;;;5031772;28;20474;-67
2023/06/16 02:37:27;;;;;;;8.00;4.37;;;14.10;98.00;;;;;;5031586;28;20455;-67
2023/06/16 02:39:54;;;;;;;7.23;4.10;;;14.10;98.00;;;;;;5033871;28;20941;-67
2023/06/16 02:42:21;;;;;;;7.67;4.00;;;13.90;98.00;;;;;;5035438;28;20455;-67
2023/06/16 02:44:48;;;;;;;7.40;4.10;;;13.70;98.00;;;;;;5035537;28;20458;-67
2023/06/16 02:47:17;;;;;;;6.63;4.13;;;13.80;98.00;;;;;;5035496;28;20807;-67
2023/06/16 02:49:45;;;;;;;6.40;3.63;;;14.00;98.00;;;;;;5035131;28;20516;-66
2023/06/16 02:52:12;;;;;;;7.10;4.07;;;14.00;98.00;;;;;;5034947;28;20549;-67
2023/06/16 02:54:40;;;;;;;6.50;3.60;;;14.00;98.00;;;;;;5034803;28;20573;-66
2023/06/16 02:57:07;;;;;;;8.30;3.97;;;13.90;98.00;;;;;;5017185;28;20803;-66
2023/06/16 02:59:44;;;;;;;6.80;3.70;;;13.90;98.00;;;;;;5034644;28;20457;-67
2023/06/16 03:02:11;;;;;;;7.33;4.03;;;14.00;98.00;;;;;;5034699;28;20473;-67
2023/06/16 03:04:40;;;;;;;8.10;4.33;;;14.10;98.00;;;;;;5034611;28;20467;-67
2023/06/16 03:07:07;;;;;;;7.00;3.87;;;14.20;98.00;;;;;;5034777;28;20868;-67
2023/06/16 03:09:34;;;;;;;6.87;4.07;;;14.30;98.00;;;;;;5034710;28;20462;-67
2023/06/16 03:12:01;;;;;;;6.63;3.97;;;14.20;98.00;;;;;;5034881;28;20462;-67
2023/06/16 03:14:29;;;;;;;7.57;4.00;;;14.10;98.00;;;;;;5034482;28;20490;-67
2023/06/16 03:16:56;;;;;;;8.50;4.20;;;14.10;98.00;;;;;;5034451;28;20462;-67
2023/06/16 03:19:23;;;;;;;6.93;3.97;;;14.10;98.00;;;;;;5017099;28;20553;-67
2023/06/16 03:21:52;;;;;;;9.43;3.80;;;14.20;98.00;;;;;;5034622;28;20462;-67
2023/06/16 03:24:19;;;;;;;6.97;4.17;;;14.30;98.00;;;;;;5034537;28;20458;-67
2023/06/16 03:26:47;;;;;;;10.17;4.47;;;14.40;98.00;;;;;;5034367;28;20451;-67
2023/06/16 03:29:14;;;;;;;12.03;4.40;;;14.60;98.00;;;;;;5034478;28;20654;-67
2023/06/16 03:31:41;;;;;;;6.77;4.20;;;14.70;98.00;;;;;;5034499;28;21008;-67
2023/06/16 03:34:09;;;;;;;9.53;4.13;;;14.80;98.00;;;;;;5034291;28;20462;-67
2023/06/16 03:36:39;;;;;;;6.80;4.20;;;14.90;98.00;;;;;;5034214;28;20940;-67
2023/06/16 03:39:07;;;;;;;7.83;4.33;;;14.90;98.00;;;;;;5033932;28;20948;-66
2023/06/16 03:41:35;;;;;;;8.87;4.60;;;15.00;98.00;;;;;;5034074;28;20967;-67
2023/06/16 03:44:03;;;;;;;6.73;4.10;;;14.80;98.00;;;;;;5034155;28;20451;-67
2023/06/16 03:46:31;;;;;;;8.00;4.43;;;14.60;98.00;;;;;;5033855;28;20526;-67
2023/06/16 03:48:58;;;;;;;7.50;4.00;;;14.50;98.00;;;;;;5034226;28;20508;-67
2023/06/16 03:51:25;;;;;;;7.30;4.50;;;14.40;98.00;;;;;;5033172;28;20532;-67
2023/06/16 03:53:52;;;;;;;8.77;4.53;;;14.50;98.00;;;;;;5033889;28;20459;-67
2023/06/16 03:56:22;;;;;;;7.13;3.97;;;14.30;98.00;;;;;;5033822;28;20552;-67
2023/06/16 03:58:49;;;;;;;9.97;4.00;;;14.30;98.00;;;;;;5033850;28;21028;-67
2023/06/16 04:01:20;;;;;;;7.27;4.00;;;14.30;98.00;;;;;;5033675;28;20470;-66
2023/06/16 04:03:47;;;;;;;7.70;4.07;;;14.40;98.00;;;;;;5016572;28;20463;-67
2023/06/16 04:06:14;;;;;;;7.57;4.10;;;14.30;98.00;;;;;;5033508;28;20513;-67
2023/06/16 04:08:41;;;;;;;8.07;4.63;;;14.40;98.00;;;;;;5015889;28;21195;-67
2023/06/16 04:11:08;;;;;;;9.10;4.93;;;14.60;98.00;;;;;;5033771;28;20463;-67
2023/06/16 04:13:36;;;;;;;8.40;4.77;;;14.80;98.00;;;;;;5033249;28;20454;-67
2023/06/16 04:16:04;;;;;;;9.23;4.60;;;14.70;98.00;;;;;;5033266;28;20494;-67
2023/06/16 04:18:33;;;;;;;7.30;4.17;;;14.70;98.00;;;;;;5033461;28;20451;-67
2023/06/16 04:21:00;;;;;;;7.83;4.07;;;14.70;98.00;;;;;;5033367;28;20463;-67
2023/06/16 04:23:30;;;;;;;9.27;4.80;;;14.60;98.00;;;;;;5033632;28;20485;-67
2023/06/16 04:25:57;;;;;;;7.30;4.30;;;14.50;98.00;;;;;;5033296;28;20482;-67
2023/06/16 04:28:25;;;;;;;7.77;4.33;;;14.40;98.00;;;;;;5033335;28;20500;-67
2023/06/16 04:30:56;;;;;;;6.93;4.30;;;14.30;98.00;;;;;;5015871;28;20497;-67
2023/06/16 04:33:24;;;;;;;7.13;4.40;;;14.30;98.00;;;;;;5033079;28;20451;-67
2023/06/16 04:35:51;;;;;;;8.83;4.33;;;14.30;98.00;;;;;;5033414;28;20914;-67
2023/06/16 04:38:19;;;;;;;7.03;3.93;;;14.40;98.00;;;;;;5015785;28;20538;-66
2023/06/16 04:40:47;;;;;;;7.30;4.03;;;14.60;98.00;;;;;;5032761;28;20454;-67
2023/06/16 04:43:14;;;;;;;7.83;4.00;;;14.80;98.00;;;;;;5015678;28;20457;-67
2023/06/16 04:45:41;;;;;;;8.27;4.50;;;15.10;98.00;;;;;;5035335;28;20508;-67
2023/06/16 04:48:10;;;;;;;7.93;4.30;;;15.30;98.00;;;;;;5052952;28;20468;-67
2023/06/16 04:50:37;;;;;;;8.43;4.87;;;15.20;98.00;;;;;;5052582;28;20544;-67
2023/06/16 04:53:05;;;;;;;9.23;4.93;;;15.10;98.00;;;;;;5052616;28;20461;-67
2023/06/16 04:55:32;;;;;;;7.93;4.77;;;15.20;98.00;;;;;;5052822;28;20486;-67
2023/06/16 04:57:59;;;;;;;10.10;4.57;;;15.40;98.00;;;;;;5052421;28;20496;-67
2023/06/16 05:00:28;;;;;;;8.37;5.00;;;15.50;98.00;;;;;;5035147;28;20466;-67
2023/06/16 05:02:55;;;;;;;7.80;4.50;;;15.60;98.00;;;;;;5051511;28;20810;-67
2023/06/16 05:05:24;;;;;;;10.97;5.20;;;15.50;98.00;;;;;;5052411;28;20466;-67
2023/06/16 05:07:51;;;;;;;10.73;5.10;;;15.50;98.00;;;;;;5052610;28;20457;-67
2023/06/16 05:10:18;;;;;;;9.50;5.50;;;15.60;98.00;;;;;;5052505;28;20905;-67
2023/06/16 05:12:45;;;;;;;11.77;5.67;;;15.70;98.00;;;;;;5052358;28;20507;-67
2023/06/16 05:15:12;;;;;;;10.37;5.40;;;15.60;98.00;;;;;;5052141;28;20477;-67
2023/06/16 05:17:39;;;;;;;9.73;4.83;;;15.50;98.00;;;;;;5052304;28;20507;-67
2023/06/16 05:20:08;;;;;;;9.10;5.20;;;15.70;98.00;;;;;;5052287;28;20484;-67
2023/06/16 05:22:36;;;;;;;7.70;4.43;;;15.70;98.00;;;;;;5052056;28;20461;-66
2023/06/16 05:25:03;;;;;;;7.20;4.70;;;15.70;98.00;;;;;;5052144;28;20457;-67
2023/06/16 05:27:30;;;;;;;8.83;5.20;;;15.80;98.00;;;;;;5052034;28;20544;-67
2023/06/16 05:29:57;;;;;;;8.90;5.00;;;15.90;98.00;;;;;;5052162;28;20866;-67
2023/06/16 05:32:24;;;;;;;12.93;5.67;;;16.10;98.00;;;;;;5052227;28;20500;-67
2023/06/16 05:34:53;;;;;;;11.10;5.47;;;16.10;98.00;;;;;;5017579;28;20549;-67
2023/06/16 05:37:23;;;;;;;7.50;4.57;;;16.10;98.00;;;;;;5052127;28;20532;-67
2023/06/16 05:39:52;;;;;;;9.70;5.30;;;16.20;98.00;;;;;;5051710;28;20503;-67
2023/06/16 05:42:20;;;;;;;9.67;4.90;;;16.30;98.00;;;;;;5051816;28;20947;-67
2023/06/16 05:44:47;;;;;;;11.30;5.20;;;16.40;98.00;;;;;;5051894;28;20454;-67
2023/06/16 05:47:14;;;;;;;10.53;4.97;;;16.60;98.00;;;;;;5051628;28;20454;-67
2023/06/16 05:49:41;;;;;;;11.20;6.10;;;16.60;98.00;;;;;;5051922;28;20811;-67
2023/06/16 05:52:09;;;;;;;10.20;5.30;;;16.70;98.00;;;;;;5051774;28;20461;-67
2023/06/16 05:54:36;;;;;;;10.40;5.10;;;16.80;98.00;;;;;;5051657;28;20496;-67
2023/06/16 05:57:06;;;;;;;8.73;4.63;;;16.80;98.00;;;;;;5051612;28;20585;-67
2023/06/16 05:59:33;;;;;;;9.00;4.90;;;16.80;98.00;;;;;;5051517;28;20535;-67
2023/06/16 06:02:00;;;;;;;11.90;5.50;;;16.90;98.00;;;;;;5034117;28;20944;-67
2023/06/16 06:04:32;;;;;;;16.10;5.70;;;16.90;98.00;;;;;;5051761;28;20460;-67
2023/06/16 06:07:00;;;;;;;12.53;5.77;;;17.00;98.00;;;;;;5051695;28;20457;-67
2023/06/16 06:09:27;;;;;;;10.80;5.77;;;17.10;98.00;;;;;;5033647;28;20460;-67
2023/06/16 06:11:54;;;;;;;8.90;4.83;;;17.10;98.00;;;;;;5051054;28;20539;-68
2023/06/16 06:14:22;;;;;;;9.23;4.63;;;17.20;98.00;;;;;;5054151;28;20519;-67
2023/06/16 06:16:50;;;;;;;9.50;5.20;;;17.20;98.00;;;;;;5054797;28;20485;-67
2023/06/16 06:19:17;;;;;;;13.07;5.10;;;17.30;98.00;;;;;;5054835;28;20562;-67
2023/06/16 06:21:44;;;;;;;7.00;4.47;;;17.50;98.00;;;;;;5054812;28;20457;-68
2023/06/16 06:24:13;;;;;;;9.07;4.73;;;17.60;98.00;;;;;;5055050;28;20457;-63
2023/06/16 06:26:42;;;;;;;8.30;4.67;;;17.70;98.00;;;;;;5054794;28;21016;-63
2023/06/16 06:29:09;;;;;;;9.00;4.90;;;17.80;98.00;;;;;;5054725;28;20461;-63
2023/06/16 06:31:38;;;;;;;8.30;5.10;;;17.90;98.00;;;;;;5054403;28;20503;-63
2023/06/16 06:34:05;;;;;;;8.67;4.87;;;18.00;98.00;;;;;;5054387;28;20465;-64
2023/06/16 06:36:36;;;;;;;10.90;5.70;;;18.00;98.00;;;;;;5054538;28;20496;-64
2023/06/16 06:39:04;;;;;;;8.70;4.90;;;18.00;98.00;;;;;;5054517;28;20464;-64
2023/06/16 06:41:32;;;;;;;9.03;5.00;;;18.00;98.00;;;;;;5020149;28;20454;-64
2023/06/16 06:43:59;;;;;;;9.47;4.83;;;18.10;98.00;;;;;;5054365;28;20457;-64
2023/06/16 06:46:26;;;;;;;11.63;5.17;;;18.10;98.00;;;;;;5054241;28;20452;-64
2023/06/16 06:48:55;;;;;;;8.93;4.77;;;18.30;98.00;;;;;;5054433;28;20960;-64
2023/06/16 06:51:22;;;;;;;12.53;5.43;;;18.40;98.00;;;;;;5054185;28;20453;-64
2023/06/16 06:53:50;;;;;;;11.43;5.23;;;18.60;98.00;;;;;;5054414;28;20465;-64
2023/06/16 06:56:17;;;;;;;8.03;4.83;;;18.70;98.00;;;;;;5053919;28;20492;-64
2023/06/16 06:58:44;;;;;;;9.30;4.93;;;18.70;98.00;;;;;;5053993;28;20461;-64
2023/06/16 07:01:12;;;;;;;9.67;5.03;;;18.90;98.00;;;;;;5053855;28;20937;-64
2023/06/16 07:03:39;;;;;;;9.00;4.73;;;19.10;98.00;;;;;;5053837;28;20852;-64
2023/06/16 07:06:07;;;;;;;9.83;5.40;;;19.20;98.00;;;;;;5036401;28;20821;-64
2023/06/16 07:08:34;;;;;;;8.63;5.20;;;19.20;98.00;;;;;;5053960;28;20647;-64
2023/06/16 07:11:01;;;;;;;9.37;4.97;;;19.30;98.00;;;;;;5053912;28;20461;-64
2023/06/16 07:13:29;;;;;;;7.63;5.00;;;19.50;98.00;;;;;;5053847;28;20458;-64
2023/06/16 07:15:56;;;;;;;11.20;5.30;;;19.50;98.00;;;;;;5035834;28;20477;-64
2023/06/16 07:18:23;;;;;;;7.47;4.53;;;19.60;98.00;;;;;;5054266;28;20461;-64
2023/06/16 07:20:50;;;;;;;8.20;4.70;;;19.70;98.00;;;;;;5040221;28;20957;-64
2023/06/16 07:23:20;;;;;;;10.83;5.23;;;19.80;98.00;;;;;;5015010;28;20509;-64
2023/06/16 07:25:47;;;;;;;8.57;5.20;;;19.90;98.00;;;;;;5032593;28;20485;-64
2023/06/16 07:28:15;;;;;;;11.10;5.73;;;19.90;98.00;;;;;;5033134;28;20466;-64
2023/06/16 07:30:43;;;;;;;9.37;4.93;;;20.00;98.00;;;;;;5028703;28;20951;-64
2023/06/16 07:33:10;;;;;;;9.17;5.13;;;20.10;98.00;;;;;;5052437;28;21126;-64
2023/06/16 07:35:37;;;;;;;9.17;4.73;;;20.20;98.00;;;;;;5035273;28;20482;-64
2023/06/16 07:38:05;;;;;;;10.80;5.53;;;20.30;98.00;;;;;;5053896;28;20519;-64
2023/06/16 07:40:33;;;;;;;12.17;5.20;;;20.60;98.00;;;;;;5053047;28;20458;-64
2023/06/16 07:43:00;;;;;;;8.90;4.97;;;20.80;98.00;;;;;;5053429;28;20449;-64
2023/06/16 07:45:31;;;;;;;7.63;4.73;;;20.90;98.00;;;;;;5054074;28;20461;-64
2023/06/16 07:47:58;;;;;;;11.43;4.80;;;20.90;98.00;;;;;;5053799;28;20460;-64
2023/06/16 07:50:26;;;;;;;9.60;5.03;;;21.00;98.00;;;;;;5053891;28;20490;-64
2023/06/16 07:52:53;;;;;;;7.93;4.60;;;21.10;97.60;;;;;;5053805;28;20457;-64
2023/06/16 07:55:20;;;;;;;10.43;4.83;;;21.20;97.70;;;;;;5053782;28;20812;-63
2023/06/16 07:57:49;;;;;;;8.53;4.67;;;21.20;97.90;;;;;;5053436;28;20475;-64
2023/06/16 08:00:19;;;;;;;13.90;5.73;;;21.30;97.40;;;;;;5053738;28;20512;-64
2023/06/16 08:02:46;;;;;;;6.73;4.60;;;21.50;96.30;;;;;;5052699;28;20461;-64
2023/06/16 08:05:17;;;;;;;7.90;5.00;;;21.60;95.70;;;;;;5053695;28;20534;-64
2023/06/16 08:07:45;;;;;;;10.40;5.30;;;21.80;95.20;;;;;;5053667;28;20972;-64
2023/06/16 08:10:12;;;;;;;7.07;4.53;;;21.90;94.30;;;;;;5053916;28;20458;-64
2023/06/16 08:12:39;;;;;;;9.20;5.07;;;21.90;94.60;;;;;;5053666;28;20461;-64
2023/06/16 08:15:11;;;;;;;8.47;4.57;;;22.00;91.30;;;;;;5053517;28;20500;-64
2023/06/16 08:17:38;;;;;;;9.30;5.10;;;22.10;91.10;;;;;;5053326;28;20490;-64
2023/06/16 08:20:07;;;;;;;8.30;4.43;;;22.10;92.20;;;;;;5053390;28;20818;-64
2023/06/16 08:22:34;;;;;;;7.50;3.97;;;22.30;91.30;;;;;;5053311;28;20489;-64
2023/06/16 08:25:02;;;;;;;7.87;4.80;;;22.50;89.50;;;;;;5051805;28;20857;-63
2023/06/16 08:27:38;;;;;;;7.10;4.23;;;22.60;89.00;;;;;;5052973;28;20464;-64
2023/06/16 08:30:09;;;;;;;7.13;4.50;;;22.70;91.20;;;;;;5051771;28;20449;-64
2023/06/16 08:37:42;;;;;;;5.93;4.07;;;23.20;86.10;;;;;;5155103;22;21037;-64
2023/06/16 08:40:10;;;;;;;6.53;3.90;;;23.40;87.80;;;;;;5051686;28;20457;-64
2023/06/16 08:42:39;;;;;;;6.33;4.17;;;23.40;82.80;;;;;;5051942;28;20524;-64
2023/06/16 08:45:10;;;;;;;7.00;4.40;;;23.50;82.60;;;;;;5052648;28;20465;-64
2023/06/16 08:47:38;;;;;;;10.20;4.53;;;23.70;84.80;;;;;;5052615;28;20849;-64
2023/06/16 08:50:07;;;;;;;5.77;3.93;;;23.90;83.00;;;;;;5035119;28;20485;-64
2023/06/16 08:52:38;;;;;;;5.73;3.70;;;24.10;82.00;;;;;;5052616;28;20851;-65
2023/06/16 08:55:10;;;;;;;5.80;3.60;;;24.10;81.30;;;;;;5052714;28;20473;-65
2023/06/16 08:57:44;;;;;;;9.33;4.13;;;24.40;82.80;;;;;;5052358;28;20882;-64
2023/06/16 09:00:14;;;;;;;6.27;3.80;;;24.70;77.80;;;;;;5035558;28;20457;-64
2023/06/16 09:02:48;;;;;;;7.03;4.00;;;24.80;74.70;;;;;;5034936;28;20464;-64
2023/06/16 09:05:16;;;;;;;5.67;3.70;;;24.80;76.50;;;;;;5052629;28;20538;-64
2023/06/16 09:07:44;;;;;;;5.63;3.63;;;25.00;74.30;;;;;;5052261;28;20544;-64
2023/06/16 09:10:11;;;;;;;5.63;3.60;;;24.80;74.60;;;;;;5052364;28;20493;-64
2023/06/16 09:12:38;;;;;;;5.47;3.37;;;24.80;75.50;;;;;;5052518;28;20486;-63
2023/06/16 09:15:09;;;;;;;6.40;4.03;;;24.90;73.50;;;;;;5052328;28;20837;-64
2023/06/16 09:17:39;;;;;;;5.30;3.30;;;25.00;73.40;;;;;;5052060;28;20820;-65
2023/06/16 09:20:14;;;;;;;6.07;3.43;;;25.30;72.10;;;;;;5052233;28;20584;-64
2023/06/16 09:22:41;;;;;;;5.13;3.40;;;25.30;70.70;;;;;;5052136;28;21130;-65
2023/06/16 09:25:12;;;;;;;6.67;3.60;;;25.40;70.10;;;;;;5051167;28;20458;-66
2023/06/16 09:27:47;;;;;;;6.03;3.87;;;25.60;71.40;;;;;;5050997;28;20977;-65
2023/06/16 09:30:16;;;;;;;6.93;3.80;;;25.70;70.50;;;;;;5051127;28;20485;-63
2023/06/16 09:32:47;;;;;;;5.47;3.70;;;25.80;70.30;;;;;;5051103;28;20454;-64
2023/06/16 09:35:22;;;;;;;6.00;3.90;;;25.80;71.60;;;;;;5051162;28;20454;-65
2023/06/16 09:37:51;;;;;;;6.20;4.00;;;25.80;69.60;;;;;;5050718;28;20488;-64
2023/06/16 09:40:20;;;;;;;6.07;3.90;;;25.60;69.40;;;;;;5051432;28;20453;-65
2023/06/16 09:42:50;;;;;;;6.20;3.67;;;25.60;68.70;;;;;;5051006;28;20527;-64
2023/06/16 09:45:20;;;;;;;6.50;3.97;;;25.70;70.30;;;;;;5051092;28;21015;-65
2023/06/16 09:47:49;;;;;;;5.80;3.70;;;25.90;71.10;;;;;;5050525;28;20458;-66
2023/06/16 09:50:17;;;;;;;6.10;3.53;;;26.10;70.80;;;;;;5050930;28;20454;-65
2023/06/16 09:52:46;;;;;;;6.00;3.93;;;26.20;67.40;;;;;;5051105;28;20512;-65
2023/06/16 09:55:17;;;;;;;5.07;3.50;;;26.20;67.80;;;;;;5051180;28;20446;-66
2023/06/16 09:57:47;;;;;;;13.33;4.27;;;26.30;70.20;;;;;;5019009;28;20494;-69
2023/06/16 10:00:16;;;;;;;7.03;4.10;;;26.30;68.20;;;;;;5032215;28;20463;-67
2023/06/16 10:02:44;;;;;;;5.03;3.60;;;26.40;67.90;;;;;;5031397;28;20867;-68
2023/06/16 10:05:16;;;;;;;6.50;3.80;;;26.50;68.10;;;;;;5031497;28;20880;-68
2023/06/16 10:07:46;;;;;;;7.70;3.87;;;26.50;66.60;;;;;;5031228;28;20512;-67
2023/06/16 10:10:14;;;;;;;7.50;3.97;;;26.50;68.00;;;;;;5031082;28;20529;-68
2023/06/16 10:12:46;;;;;;;8.93;4.20;;;26.70;68.00;;;;;;5013859;28;20459;-68
2023/06/16 10:15:15;;;;;;;7.47;4.00;;;26.90;68.00;;;;;;5031176;28;20462;-68
2023/06/16 10:17:45;;;;;;;6.50;4.03;;;27.10;66.40;;;;;;5031323;28;20493;-69
2023/06/16 10:20:16;;;;;;;5.60;3.70;;;27.00;66.30;;;;;;5030957;28;20461;-68
2023/06/16 10:22:44;;;;;;;10.13;4.40;;;27.00;66.90;;;;;;5031082;28;20538;-69
2023/06/16 10:25:12;;;;;;;6.50;4.00;;;27.00;67.30;;;;;;5013843;28;20463;-69
2023/06/16 10:27:44;;;;;;;5.13;3.70;;;27.00;66.50;;;;;;5031471;28;20458;-69
2023/06/16 10:30:16;;;;;;;5.10;3.60;;;27.10;67.30;;;;;;5031515;28;20810;-69
2023/06/16 10:32:46;;;;;;;9.93;4.60;;;27.20;66.60;;;;;;5031333;28;20564;-68
2023/06/16 10:35:21;;;;;;;8.20;4.60;;;27.30;65.70;;;;;;5028873;28;20462;-70
2023/06/16 10:37:51;;;;;;;8.57;4.50;;;27.50;66.80;;;;;;5012898;28;20485;-69
2023/06/16 10:40:21;;;;;;;6.77;4.20;;;27.60;65.80;;;;;;5030831;28;20542;-69
2023/06/16 10:42:52;;;;;;;7.17;3.80;;;27.50;65.00;;;;;;5030146;28;20462;-70
2023/06/16 10:45:24;;;;;;;6.67;3.93;;;27.10;65.60;;;;;;5031008;28;20470;-69
2023/06/16 10:47:58;;;;;;;4.90;3.47;;;27.10;67.50;;;;;;5031113;28;20513;-70
2023/06/16 10:50:43;;;;;;;5.83;3.87;;;27.40;67.00;;;;;;5031041;28;20457;-69
2023/06/16 10:53:12;;;;;;;5.80;4.13;;;27.70;66.50;;;;;;5028580;28;20501;-70
2023/06/16 10:56:00;;;;;;;6.30;4.07;;;28.00;64.70;;;;;;5031156;28;20469;-69
2023/06/16 10:58:30;;;;;;;6.80;4.27;;;28.10;64.80;;;;;;5028232;28;20490;-67
2023/06/16 11:01:07;;;;;;;5.60;4.10;;;27.80;63.90;;;;;;5033463;28;20462;-68
2023/06/16 11:03:37;;;;;;;7.10;3.90;;;27.70;64.10;;;;;;5034893;28;20508;-67
2023/06/16 11:06:06;;;;;;;7.47;4.50;;;27.70;62.70;;;;;;5034801;28;20542;-69
2023/06/16 11:08:49;;;;;;;6.00;4.00;;;27.90;64.10;;;;;;5034471;28;20491;-68
2023/06/16 11:11:17;;;;;;;6.00;4.30;;;28.30;64.00;;;;;;5034322;28;20466;-68
2023/06/16 11:13:44;;;;;;;6.17;4.43;;;28.60;64.10;;;;;;5034355;28;20462;-68
2023/06/16 11:16:11;;;;;;;5.57;4.00;;;28.80;63.90;;;;;;5016612;28;20473;-67
2023/06/16 11:18:38;;;;;;;6.77;4.43;;;28.70;63.50;;;;;;5033671;28;20482;-67
2023/06/16 11:21:08;;;;;;;7.20;4.40;;;28.80;63.90;;;;;;5033789;28;20459;-67
2023/06/16 11:23:36;;;;;;;7.10;4.60;;;29.10;63.90;;;;;;5033410;28;20447;-67
2023/06/16 11:26:05;;;;;;;8.00;4.67;;;29.30;61.90;;;;;;5033364;28;20798;-67
2023/06/16 11:28:33;;;;;;;7.10;4.30;;;29.30;61.20;;;;;;5033459;28;20550;-67
2023/06/16 11:31:01;;;;;;;7.17;4.67;;;29.50;63.00;;;;;;5016067;28;20463;-67
2023/06/16 11:33:29;;;;;;;7.47;4.33;;;29.70;62.10;;;;;;5033527;28;20463;-67
2023/06/16 11:35:57;;;;;;;7.10;4.30;;;30.00;62.40;;;;;;5033024;28;20517;-68
2023/06/16 11:38:26;;;;;;;6.73;4.43;;;30.00;61.80;;;;;;5033061;28;20593;-67
2023/06/16 11:40:54;;;;;;;5.50;4.00;;;30.00;60.70;;;;;;5033225;28;20463;-67
2023/06/16 11:43:24;;;;;;;7.00;4.10;;;30.10;61.40;;;;;;5033233;28;20518;-68
2023/06/16 11:45:52;;;;;;;6.33;4.10;;;30.30;62.60;;;;;;5033330;28;21068;-68
2023/06/16 11:48:20;;;;;;;6.40;4.40;;;30.70;60.00;;;;;;5033161;28;20454;-68
2023/06/16 11:50:47;;;;;;;6.17;4.33;;;30.50;58.90;;;;;;5033620;28;20948;-69
2023/06/16 11:53:15;;;;;;;6.13;4.10;;;30.20;60.60;;;;;;5032934;28;20494;-69
2023/06/16 11:56:00;;;;;;;6.00;3.97;;;30.30;59.80;;;;;;5033938;28;20450;-69
2023/06/16 11:58:28;;;;;;;5.43;4.03;;;30.40;59.40;;;;;;5015774;28;20493;-68
2023/06/16 12:00:59;;;;;;;6.30;4.00;;;30.60;60.30;;;;;;5033989;28;20455;-69
2023/06/16 12:03:28;;;;;;;7.47;4.70;;;30.40;59.50;;;;;;5033929;28;20455;-68
2023/06/16 12:05:56;;;;;;;5.40;3.90;;;30.20;59.10;;;;;;5033432;28;20525;-66
2023/06/16 12:08:41;;;;;;;5.90;4.10;;;30.20;59.80;;;;;;5033596;28;20513;-68
2023/06/16 12:11:10;;;;;;;5.50;3.90;;;29.90;59.80;;;;;;5015652;28;20490;-68
2023/06/16 12:13:38;;;;;;;7.03;4.37;;;29.50;61.00;;;;;;5033320;28;20473;-68
2023/06/16 12:16:06;;;;;;;7.97;4.60;;;29.60;60.20;;;;;;5015363;28;20521;-68
2023/06/16 12:18:33;;;;;;;8.23;4.30;;;29.80;61.00;;;;;;5032987;28;20485;-68
2023/06/16 12:21:15;;;;;;;6.03;4.17;;;30.40;59.60;;;;;;5015515;28;20462;-67
2023/06/16 12:23:42;;;;;;;6.23;4.07;;;30.80;59.00;;;;;;5033110;28;20543;-68
2023/06/16 12:29:12;;;;;;;10.13;4.33;;;30.80;59.00;;;;;;5150799;27;20554;-67
2023/06/16 12:31:51;;;;;;;6.90;4.20;;;30.90;57.60;;;;;;5128916;28;20494;-68
2023/06/16 12:34:25;;;;;;;6.40;4.37;;;30.90;57.70;;;;;;5130284;28;20541;-67
2023/06/16 12:36:53;;;;;;;6.23;4.60;;;31.10;57.60;;;;;;5129971;28;20462;-69
2023/06/16 12:39:21;;;;;;;9.00;4.83;;;31.10;57.90;;;;;;5122310;28;20452;-68
2023/06/16 12:42:00;;;;;;;6.10;3.80;;;31.20;57.50;;;;;;5116368;28;20462;-67
2023/06/16 12:47:22;;;;;;;6.20;4.30;;;31.20;57.80;;;;;;5150539;27;20538;-70
2023/06/16 12:49:51;;;;;;;8.90;4.17;;;30.50;57.40;;;;;;5129883;28;20465;-67
2023/06/16 12:52:19;;;;;;;6.13;4.20;;;29.90;58.10;;;;;;5130299;28;21108;-67
2023/06/16 12:54:47;;;;;;;7.53;4.30;;;29.70;58.30;;;;;;5130151;28;20486;-68
2023/06/16 12:57:14;;;;;;;6.90;4.53;;;30.00;58.80;;;;;;5130267;28;20453;-68
2023/06/16 12:59:41;;;;;;;5.73;4.07;;;30.50;57.00;;;;;;5130099;27;20567;-68
2023/06/16 13:02:08;;;;;;;6.33;4.00;;;30.80;58.30;;;;;;5129843;27;20470;-74
2023/06/16 13:04:53;;;;;;;8.75;4.30;;;30.90;57.20;;;;;;5125953;28;20449;-70
2023/06/16 13:07:20;;;;;;;8.57;4.30;;;31.00;57.10;;;;;;5129729;27;20297;-67